sensor_id;sensor_type;location;lat;lon;timestamp;pressure;altitude;pressure_sealevel;temperature;humidity
66396;BME280;53207;51.378;-1.342;2022-12-18T00:01:21;100736.59;;;20.25;25.80
66396;BME280;53207;51.378;-1.342;2022-12-18T00:03:49;100730.16;;;20.37;25.70
66396;BME280;53207;51.378;-1.342;2022-12-18T00:06:16;100721.51;;;20.46;25.63
66396;BME280;53207;51.378;-1.342;2022-12-18T00:08:44;100712.82;;;20.55;25.70
66396;BME280;53207;51.378;-1.342;2022-12-18T00:11:14;100707.68;;;20.85;25.95
66396;BME280;53207;51.378;-1.342;2022-12-18T00:13:42;100701.50;;;20.68;25.96
66396;BME280;53207;51.378;-1.342;2022-12-18T00:16:12;100695.92;;;20.74;25.93
66396;BME280;53207;51.378;-1.342;2022-12-18T00:18:40;100690.63;;;20.54;25.80
66396;BME280;53207;51.378;-1.342;2022-12-18T00:21:10;100689.51;;;20.89;25.65
66396;BME280;53207;51.378;-1.342;2022-12-18T00:23:40;100691.61;;;20.68;25.54
66396;BME280;53207;51.378;-1.342;2022-12-18T00:26:11;100690.84;;;20.52;25.40
66396;BME280;53207;51.378;-1.342;2022-12-18T00:28:41;100688.61;;;20.58;25.28
66396;BME280;53207;51.378;-1.342;2022-12-18T00:31:10;100686.83;;;20.78;25.29
66396;BME280;53207;51.378;-1.342;2022-12-18T00:33:38;100682.64;;;20.83;25.20
66396;BME280;53207;51.378;-1.342;2022-12-18T00:36:09;100677.65;;;20.80;25.11
66396;BME280;53207;51.378;-1.342;2022-12-18T00:38:37;100670.77;;;20.58;25.19
66396;BME280;53207;51.378;-1.342;2022-12-18T00:41:05;100664.16;;;20.82;25.12
66396;BME280;53207;51.378;-1.342;2022-12-18T00:43:33;100662.60;;;20.76;25.05
66396;BME280;53207;51.378;-1.342;2022-12-18T00:46:01;100660.19;;;20.73;25.01
66396;BME280;53207;51.378;-1.342;2022-12-18T00:48:28;100655.98;;;20.67;25.05
66396;BME280;53207;51.378;-1.342;2022-12-18T00:50:55;100653.80;;;20.65;24.99
66396;BME280;53207;51.378;-1.342;2022-12-18T00:53:23;100648.37;;;20.61;25.01
66396;BME280;53207;51.378;-1.342;2022-12-18T00:55:50;100646.19;;;20.53;25.04
66396;BME280;53207;51.378;-1.342;2022-12-18T00:58:17;100644.47;;;20.47;25.09
66396;BME280;53207;51.378;-1.342;2022-12-18T01:00:44;100644.72;;;20.61;25.13
66396;BME280;53207;51.378;-1.342;2022-12-18T01:03:13;100644.38;;;20.28;25.17
66396;BME280;53207;51.378;-1.342;2022-12-18T01:05:41;100649.61;;;20.23;25.16
66396;BME280;53207;51.378;-1.342;2022-12-18T01:08:09;100649.40;;;20.17;25.10
66396;BME280;53207;51.378;-1.342;2022-12-18T01:10:36;100645.42;;;20.42;25.05
66396;BME280;53207;51.378;-1.342;2022-12-18T01:13:06;100631.15;;;20.09;25.01
66396;BME280;53207;51.378;-1.342;2022-12-18T01:15:33;100625.72;;;19.99;24.98
66396;BME280;53207;51.378;-1.342;2022-12-18T01:18:00;100625.91;;;19.90;24.90
66396;BME280;53207;51.378;-1.342;2022-12-18T01:20:28;100632.52;;;19.77;24.88
66396;BME280;53207;51.378;-1.342;2022-12-18T01:22:55;100633.35;;;19.78;24.86
66396;BME280;53207;51.378;-1.342;2022-12-18T01:25:23;100632.86;;;19.72;24.88
66396;BME280;53207;51.378;-1.342;2022-12-18T01:27:50;100631.55;;;19.92;24.78
66396;BME280;53207;51.378;-1.342;2022-12-18T01:30:17;100626.47;;;19.82;24.90
66396;BME280;53207;51.378;-1.342;2022-12-18T01:32:44;100629.19;;;19.54;24.86
66396;BME280;53207;51.378;-1.342;2022-12-18T01:35:12;100629.92;;;19.85;24.86
66396;BME280;53207;51.378;-1.342;2022-12-18T01:37:39;100629.11;;;19.82;24.98
66396;BME280;53207;51.378;-1.342;2022-12-18T01:40:08;100626.06;;;19.54;24.96
66396;BME280;53207;51.378;-1.342;2022-12-18T01:42:35;100624.76;;;19.72;25.00
66396;BME280;53207;51.378;-1.342;2022-12-18T01:45:06;100626.12;;;19.61;25.01
66396;BME280;53207;51.378;-1.342;2022-12-18T01:47:39;100629.86;;;19.59;25.04
66396;BME280;53207;51.378;-1.342;2022-12-18T01:50:11;100631.48;;;19.52;25.07
66396;BME280;53207;51.378;-1.342;2022-12-18T01:52:41;100636.37;;;19.48;25.05
66396;BME280;53207;51.378;-1.342;2022-12-18T01:55:10;100635.31;;;19.35;25.20
66396;BME280;53207;51.378;-1.342;2022-12-18T01:57:39;100638.75;;;19.38;25.11
66396;BME280;53207;51.378;-1.342;2022-12-18T02:00:10;100645.16;;;19.28;25.19
66396;BME280;53207;51.378;-1.342;2022-12-18T02:02:39;100649.68;;;19.22;25.21
66396;BME280;53207;51.378;-1.342;2022-12-18T02:05:07;100647.73;;;19.45;25.15
66396;BME280;53207;51.378;-1.342;2022-12-18T02:07:43;100646.60;;;19.05;25.26
66396;BME280;53207;51.378;-1.342;2022-12-18T02:10:17;100649.14;;;19.08;25.25
66396;BME280;53207;51.378;-1.342;2022-12-18T02:12:49;100649.34;;;19.06;25.24
66396;BME280;53207;51.378;-1.342;2022-12-18T02:15:25;100647.55;;;18.96;25.24
66396;BME280;53207;51.378;-1.342;2022-12-18T02:17:56;100647.11;;;18.87;25.32
66396;BME280;53207;51.378;-1.342;2022-12-18T02:20:33;100652.14;;;18.79;25.38
66396;BME280;53207;51.378;-1.342;2022-12-18T02:23:09;100653.98;;;19.05;25.44
66396;BME280;53207;51.378;-1.342;2022-12-18T02:25:57;100651.04;;;18.76;25.34
66396;BME280;53207;51.378;-1.342;2022-12-18T02:28:33;100640.04;;;18.65;25.46
66396;BME280;53207;51.378;-1.342;2022-12-18T02:31:04;100640.28;;;18.68;25.45
66396;BME280;53207;51.378;-1.342;2022-12-18T02:33:33;100639.43;;;18.87;25.44
66396;BME280;53207;51.378;-1.342;2022-12-18T02:36:03;100634.32;;;18.46;25.53
66396;BME280;53207;51.378;-1.342;2022-12-18T02:38:31;100632.37;;;18.49;25.50
66396;BME280;53207;51.378;-1.342;2022-12-18T02:40:58;100629.65;;;18.74;25.52
66396;BME280;53207;51.378;-1.342;2022-12-18T02:43:26;100616.30;;;18.39;25.44
66396;BME280;53207;51.378;-1.342;2022-12-18T02:45:56;100610.75;;;18.33;25.56
66396;BME280;53207;51.378;-1.342;2022-12-18T02:48:27;100605.94;;;18.83;25.49
66396;BME280;53207;51.378;-1.342;2022-12-18T02:51:01;100598.46;;;18.60;25.46
66396;BME280;53207;51.378;-1.342;2022-12-18T02:53:36;100596.23;;;18.72;25.52
66396;BME280;53207;51.378;-1.342;2022-12-18T02:56:09;100597.98;;;18.75;25.49
66396;BME280;53207;51.378;-1.342;2022-12-18T02:58:45;100604.02;;;18.72;25.52
66396;BME280;53207;51.378;-1.342;2022-12-18T03:01:19;100604.01;;;18.46;25.52
66396;BME280;53207;51.378;-1.342;2022-12-18T03:03:52;100609.29;;;18.60;25.50
66396;BME280;53207;51.378;-1.342;2022-12-18T03:06:25;100613.69;;;18.33;25.56
66396;BME280;53207;51.378;-1.342;2022-12-18T03:08:58;100609.25;;;18.46;25.58
66396;BME280;53207;51.378;-1.342;2022-12-18T03:11:27;100600.66;;;18.27;25.54
66396;BME280;53207;51.378;-1.342;2022-12-18T03:13:58;100606.41;;;18.21;25.58
66396;BME280;53207;51.378;-1.342;2022-12-18T03:16:28;100603.76;;;18.24;25.55
66396;BME280;53207;51.378;-1.342;2022-12-18T03:18:58;100599.42;;;18.44;25.51
66396;BME280;53207;51.378;-1.342;2022-12-18T03:21:31;100597.88;;;18.15;25.54
66396;BME280;53207;51.378;-1.342;2022-12-18T03:24:01;100590.35;;;18.12;25.60
66396;BME280;53207;51.378;-1.342;2022-12-18T03:26:31;100588.82;;;18.30;25.61
66396;BME280;53207;51.378;-1.342;2022-12-18T03:29:02;100595.88;;;18.29;25.57
66396;BME280;53207;51.378;-1.342;2022-12-18T03:31:31;100600.88;;;18.23;25.56
66396;BME280;53207;51.378;-1.342;2022-12-18T03:34:02;100601.76;;;18.43;25.59
66396;BME280;53207;51.378;-1.342;2022-12-18T03:36:31;100598.28;;;18.18;25.55
66396;BME280;53207;51.378;-1.342;2022-12-18T03:38:59;100599.04;;;18.19;25.56
66396;BME280;53207;51.378;-1.342;2022-12-18T03:41:31;100595.78;;;18.19;25.55
66396;BME280;53207;51.378;-1.342;2022-12-18T03:44:09;100592.27;;;18.33;25.62
66396;BME280;53207;51.378;-1.342;2022-12-18T03:46:41;100591.35;;;18.05;25.65
66396;BME280;53207;51.378;-1.342;2022-12-18T03:49:17;100587.41;;;18.11;25.56
66396;BME280;53207;51.378;-1.342;2022-12-18T03:51:51;100581.87;;;18.09;25.57
66396;BME280;53207;51.378;-1.342;2022-12-18T03:54:19;100580.95;;;18.04;25.60
66396;BME280;53207;51.378;-1.342;2022-12-18T03:56:53;100576.59;;;17.94;25.63
66396;BME280;53207;51.378;-1.342;2022-12-18T03:59:24;100578.00;;;17.99;25.59
66396;BME280;53207;51.378;-1.342;2022-12-18T04:01:54;100576.44;;;17.98;25.59
66396;BME280;53207;51.378;-1.342;2022-12-18T04:04:24;100573.02;;;17.90;25.60
66396;BME280;53207;51.378;-1.342;2022-12-18T04:06:52;100571.80;;;17.97;25.58
66396;BME280;53207;51.378;-1.342;2022-12-18T04:09:19;100570.29;;;17.89;25.60
66396;BME280;53207;51.378;-1.342;2022-12-18T04:11:48;100566.36;;;17.89;25.61
66396;BME280;53207;51.378;-1.342;2022-12-18T04:14:15;100560.78;;;18.08;25.61
66396;BME280;53207;51.378;-1.342;2022-12-18T04:16:42;100555.24;;;18.04;25.64
66396;BME280;53207;51.378;-1.342;2022-12-18T04:19:09;100555.47;;;17.76;25.67
66396;BME280;53207;51.378;-1.342;2022-12-18T04:21:37;100552.93;;;17.80;25.64
66396;BME280;53207;51.378;-1.342;2022-12-18T04:24:04;100547.25;;;17.76;25.65
66396;BME280;53207;51.378;-1.342;2022-12-18T04:26:31;100538.74;;;17.96;25.62
66396;BME280;53207;51.378;-1.342;2022-12-18T04:28:58;100521.77;;;17.96;25.64
66396;BME280;53207;51.378;-1.342;2022-12-18T04:31:26;100512.66;;;17.92;25.66
66396;BME280;53207;51.378;-1.342;2022-12-18T04:33:53;100507.70;;;17.66;25.69
66396;BME280;53207;51.378;-1.342;2022-12-18T04:36:20;100499.72;;;17.70;25.64
66396;BME280;53207;51.378;-1.342;2022-12-18T04:38:48;100491.03;;;17.60;25.72
66396;BME280;53207;51.378;-1.342;2022-12-18T04:41:15;100487.78;;;17.59;25.71
66396;BME280;53207;51.378;-1.342;2022-12-18T04:43:41;100485.88;;;17.61;25.68
66396;BME280;53207;51.378;-1.342;2022-12-18T04:46:09;100478.17;;;18.03;25.71
66396;BME280;53207;51.378;-1.342;2022-12-18T04:48:36;100470.15;;;17.53;25.74
66396;BME280;53207;51.378;-1.342;2022-12-18T04:51:04;100461.67;;;17.73;25.75
66396;BME280;53207;51.378;-1.342;2022-12-18T04:53:31;100462.78;;;17.72;25.73
66396;BME280;53207;51.378;-1.342;2022-12-18T04:56:04;100458.57;;;18.01;25.68
66396;BME280;53207;51.378;-1.342;2022-12-18T04:58:32;100457.33;;;17.68;25.74
66396;BME280;53207;51.378;-1.342;2022-12-18T05:00:59;100458.07;;;17.92;25.76
66396;BME280;53207;51.378;-1.342;2022-12-18T05:03:27;100455.08;;;17.63;25.78
66396;BME280;53207;51.378;-1.342;2022-12-18T05:05:54;100451.90;;;17.41;25.77
66396;BME280;53207;51.378;-1.342;2022-12-18T05:08:21;100443.14;;;17.87;25.78
66396;BME280;53207;51.378;-1.342;2022-12-18T05:10:49;100441.22;;;17.56;25.80
66396;BME280;53207;51.378;-1.342;2022-12-18T05:13:16;100435.28;;;17.82;25.82
66396;BME280;53207;51.378;-1.342;2022-12-18T05:15:42;100438.46;;;17.54;25.84
66396;BME280;53207;51.378;-1.342;2022-12-18T05:18:17;100441.54;;;17.55;25.82
66396;BME280;53207;51.378;-1.342;2022-12-18T05:20:44;100445.67;;;17.80;25.85
66396;BME280;53207;51.378;-1.342;2022-12-18T05:23:12;100444.88;;;17.51;25.86
66396;BME280;53207;51.378;-1.342;2022-12-18T05:25:39;100444.94;;;17.50;25.88
66396;BME280;53207;51.378;-1.342;2022-12-18T05:28:06;100438.39;;;17.25;25.88
66396;BME280;53207;51.378;-1.342;2022-12-18T05:30:33;100432.66;;;17.45;25.88
66396;BME280;53207;51.378;-1.342;2022-12-18T05:33:00;100425.27;;;17.68;25.93
66396;BME280;53207;51.378;-1.342;2022-12-18T05:35:27;100424.26;;;17.73;25.90
66396;BME280;53207;51.378;-1.342;2022-12-18T05:37:54;100425.93;;;17.62;25.95
66396;BME280;53207;51.378;-1.342;2022-12-18T05:40:21;100423.47;;;17.34;25.97
66396;BME280;53207;51.378;-1.342;2022-12-18T05:42:49;100414.05;;;17.36;25.95
66396;BME280;53207;51.378;-1.342;2022-12-18T05:45:16;100405.85;;;17.60;26.00
66396;BME280;53207;51.378;-1.342;2022-12-18T05:47:44;100400.95;;;17.33;25.97
66396;BME280;53207;51.378;-1.342;2022-12-18T05:50:12;100396.24;;;17.56;26.01
66396;BME280;53207;51.378;-1.342;2022-12-18T05:52:39;100390.45;;;17.52;26.02
66396;BME280;53207;51.378;-1.342;2022-12-18T05:55:06;100384.01;;;17.27;25.99
66396;BME280;53207;51.378;-1.342;2022-12-18T05:57:34;100380.09;;;17.45;26.03
66396;BME280;53207;51.378;-1.342;2022-12-18T06:00:01;100372.07;;;17.41;26.07
66396;BME280;53207;51.378;-1.342;2022-12-18T06:02:28;100373.61;;;17.18;26.03
66396;BME280;53207;51.378;-1.342;2022-12-18T06:04:55;100374.43;;;17.21;26.02
66396;BME280;53207;51.378;-1.342;2022-12-18T06:07:22;100367.30;;;17.17;26.05
66396;BME280;53207;51.378;-1.342;2022-12-18T06:09:49;100358.51;;;17.14;26.05
66396;BME280;53207;51.378;-1.342;2022-12-18T06:12:16;100352.25;;;17.57;26.10
66396;BME280;53207;51.378;-1.342;2022-12-18T06:14:44;100350.45;;;17.11;26.07
66396;BME280;53207;51.378;-1.342;2022-12-18T06:17:12;100344.59;;;16.89;26.04
66396;BME280;53207;51.378;-1.342;2022-12-18T06:19:39;100339.56;;;17.03;26.12
66396;BME280;53207;51.378;-1.342;2022-12-18T06:22:05;100334.51;;;16.99;26.15
66396;BME280;53207;51.378;-1.342;2022-12-18T06:24:33;100338.35;;;17.01;26.10
66396;BME280;53207;51.378;-1.342;2022-12-18T06:27:00;100348.29;;;17.23;26.13
66396;BME280;53207;51.378;-1.342;2022-12-18T06:29:28;100350.47;;;17.34;26.05
66396;BME280;53207;51.378;-1.342;2022-12-18T06:31:55;100338.48;;;16.99;26.10
66396;BME280;53207;51.378;-1.342;2022-12-18T06:34:22;100330.58;;;16.96;26.12
66396;BME280;53207;51.378;-1.342;2022-12-18T06:36:49;100330.48;;;16.96;26.08
66396;BME280;53207;51.378;-1.342;2022-12-18T06:39:17;100334.44;;;17.22;26.08
66396;BME280;53207;51.378;-1.342;2022-12-18T06:41:44;100328.89;;;17.18;26.13
66396;BME280;53207;51.378;-1.342;2022-12-18T06:44:11;100324.91;;;17.17;26.12
66396;BME280;53207;51.378;-1.342;2022-12-18T06:46:38;100326.62;;;17.17;26.09
66396;BME280;53207;51.378;-1.342;2022-12-18T06:49:05;100328.35;;;17.13;26.13
66396;BME280;53207;51.378;-1.342;2022-12-18T06:51:33;100331.21;;;17.65;26.09
66396;BME280;53207;51.378;-1.342;2022-12-18T06:53:59;100325.44;;;16.85;26.13
66396;BME280;53207;51.378;-1.342;2022-12-18T06:56:27;100326.16;;;17.10;26.12
66396;BME280;53207;51.378;-1.342;2022-12-18T06:58:54;100332.21;;;17.02;26.20
66396;BME280;53207;51.378;-1.342;2022-12-18T07:01:21;100323.68;;;17.05;26.15
66396;BME280;53207;51.378;-1.342;2022-12-18T07:03:52;100325.10;;;17.03;26.19
66396;BME280;53207;51.378;-1.342;2022-12-18T07:06:22;100327.47;;;16.85;26.13
66396;BME280;53207;51.378;-1.342;2022-12-18T07:08:50;100324.68;;;16.87;26.10
66396;BME280;53207;51.378;-1.342;2022-12-18T07:11:18;100318.54;;;17.22;26.11
66396;BME280;53207;51.378;-1.342;2022-12-18T07:13:46;100315.07;;;17.43;26.01
66396;BME280;53207;51.378;-1.342;2022-12-18T07:16:15;100312.47;;;17.29;25.99
66396;BME280;53207;51.378;-1.342;2022-12-18T07:18:43;100307.29;;;17.67;26.04
66396;BME280;53207;51.378;-1.342;2022-12-18T07:21:12;100295.59;;;17.47;26.18
66396;BME280;53207;51.378;-1.342;2022-12-18T07:23:40;100301.34;;;17.64;26.23
66396;BME280;53207;51.378;-1.342;2022-12-18T07:26:08;100306.15;;;17.81;26.27
66396;BME280;53207;51.378;-1.342;2022-12-18T07:28:37;100304.03;;;17.92;26.31
66396;BME280;53207;51.378;-1.342;2022-12-18T07:31:05;100292.78;;;17.86;26.23
66396;BME280;53207;51.378;-1.342;2022-12-18T07:33:33;100287.97;;;17.96;26.18
66396;BME280;53207;51.378;-1.342;2022-12-18T07:36:01;100278.68;;;18.59;26.08
66396;BME280;53207;51.378;-1.342;2022-12-18T07:38:29;100280.38;;;18.47;25.99
66396;BME280;53207;51.378;-1.342;2022-12-18T07:41:00;100278.61;;;18.33;25.95
66396;BME280;53207;51.378;-1.342;2022-12-18T07:43:28;100273.41;;;18.43;25.88
66396;BME280;53207;51.378;-1.342;2022-12-18T07:45:56;100268.58;;;18.53;25.77
66396;BME280;53207;51.378;-1.342;2022-12-18T07:48:22;100272.27;;;18.65;25.70
66396;BME280;53207;51.378;-1.342;2022-12-18T07:50:50;100275.49;;;18.77;25.63
66396;BME280;53207;51.378;-1.342;2022-12-18T07:53:17;100276.46;;;18.61;25.57
66396;BME280;53207;51.378;-1.342;2022-12-18T07:55:44;100283.71;;;18.95;25.46
66396;BME280;53207;51.378;-1.342;2022-12-18T07:58:12;100282.35;;;18.83;25.45
66396;BME280;53207;51.378;-1.342;2022-12-18T08:00:39;100284.67;;;19.11;25.42
66396;BME280;53207;51.378;-1.342;2022-12-18T08:03:06;100295.91;;;18.96;25.41
66396;BME280;53207;51.378;-1.342;2022-12-18T08:05:34;100302.32;;;18.77;25.35
66396;BME280;53207;51.378;-1.342;2022-12-18T08:08:01;100309.46;;;19.26;25.40
66396;BME280;53207;51.378;-1.342;2022-12-18T08:10:28;100309.43;;;19.15;25.29
66396;BME280;53207;51.378;-1.342;2022-12-18T08:12:56;100311.64;;;18.90;25.33
66396;BME280;53207;51.378;-1.342;2022-12-18T08:15:23;100310.69;;;18.96;25.30
66396;BME280;53207;51.378;-1.342;2022-12-18T08:17:50;100315.18;;;19.01;25.28
66396;BME280;53207;51.378;-1.342;2022-12-18T08:20:18;100309.15;;;19.09;25.24
66396;BME280;53207;51.378;-1.342;2022-12-18T08:22:45;100302.28;;;19.39;25.24
66396;BME280;53207;51.378;-1.342;2022-12-18T08:25:13;100296.03;;;19.14;25.26
66396;BME280;53207;51.378;-1.342;2022-12-18T08:27:40;100300.67;;;19.24;25.16
66396;BME280;53207;51.378;-1.342;2022-12-18T08:30:08;100300.89;;;19.24;25.19
66396;BME280;53207;51.378;-1.342;2022-12-18T08:32:36;100298.57;;;19.33;25.10
66396;BME280;53207;51.378;-1.342;2022-12-18T08:35:04;100302.87;;;19.33;25.11
66396;BME280;53207;51.378;-1.342;2022-12-18T08:37:32;100306.44;;;19.40;25.14
66396;BME280;53207;51.378;-1.342;2022-12-18T08:39:59;100301.01;;;19.45;25.11
66396;BME280;53207;51.378;-1.342;2022-12-18T08:42:27;100301.09;;;19.44;25.15
66396;BME280;53207;51.378;-1.342;2022-12-18T08:44:54;100298.12;;;19.52;25.17
66396;BME280;53207;51.378;-1.342;2022-12-18T08:47:21;100299.12;;;19.32;25.22
66396;BME280;53207;51.378;-1.342;2022-12-18T08:49:48;100302.65;;;19.60;25.19
66396;BME280;53207;51.378;-1.342;2022-12-18T08:52:16;100310.06;;;19.64;25.21
66396;BME280;53207;51.378;-1.342;2022-12-18T08:54:43;100321.94;;;19.69;25.21
66396;BME280;53207;51.378;-1.342;2022-12-18T08:57:10;100327.55;;;19.73;25.22
66396;BME280;53207;51.378;-1.342;2022-12-18T08:59:38;100325.41;;;19.75;25.25
66396;BME280;53207;51.378;-1.342;2022-12-18T09:02:05;100330.17;;;19.82;25.25
66396;BME280;53207;51.378;-1.342;2022-12-18T09:04:32;100330.95;;;19.61;25.23
66396;BME280;53207;51.378;-1.342;2022-12-18T09:07:00;100329.07;;;19.87;25.19
66396;BME280;53207;51.378;-1.342;2022-12-18T09:09:27;100327.95;;;19.70;25.12
66396;BME280;53207;51.378;-1.342;2022-12-18T09:11:54;100317.25;;;19.97;25.07
66396;BME280;53207;51.378;-1.342;2022-12-18T09:14:22;100300.85;;;19.92;25.14
66396;BME280;53207;51.378;-1.342;2022-12-18T09:16:49;100301.87;;;20.01;25.01
66396;BME280;53207;51.378;-1.342;2022-12-18T09:19:16;100301.62;;;19.66;25.21
66396;BME280;53207;51.378;-1.342;2022-12-18T09:21:44;100306.13;;;19.41;25.25
66396;BME280;53207;51.378;-1.342;2022-12-18T09:24:12;100305.33;;;19.96;25.20
66396;BME280;53207;51.378;-1.342;2022-12-18T09:26:40;100303.97;;;19.99;25.19
66396;BME280;53207;51.378;-1.342;2022-12-18T09:29:07;100301.27;;;19.81;25.17
66396;BME280;53207;51.378;-1.342;2022-12-18T09:31:35;100306.66;;;19.83;25.16
66396;BME280;53207;51.378;-1.342;2022-12-18T09:34:03;100297.53;;;19.83;25.14
66396;BME280;53207;51.378;-1.342;2022-12-18T09:36:30;100294.88;;;20.07;25.13
66396;BME280;53207;51.378;-1.342;2022-12-18T09:38:58;100288.57;;;19.87;25.15
66396;BME280;53207;51.378;-1.342;2022-12-18T09:41:39;100285.69;;;20.13;25.14
66396;BME280;53207;51.378;-1.342;2022-12-18T09:44:14;100282.72;;;19.66;25.15
66396;BME280;53207;51.378;-1.342;2022-12-18T09:46:47;100273.52;;;19.69;25.14
66396;BME280;53207;51.378;-1.342;2022-12-18T09:49:18;100270.75;;;19.75;25.13
66396;BME280;53207;51.378;-1.342;2022-12-18T09:51:50;100266.99;;;19.78;25.12
66396;BME280;53207;51.378;-1.342;2022-12-18T09:54:22;100259.80;;;20.09;25.10
66396;BME280;53207;51.378;-1.342;2022-12-18T09:56:51;100260.35;;;20.08;25.10
66396;BME280;53207;51.378;-1.342;2022-12-18T09:59:23;100254.25;;;20.08;25.07
66396;BME280;53207;51.378;-1.342;2022-12-18T10:01:51;100250.06;;;20.07;25.05
66396;BME280;53207;51.378;-1.342;2022-12-18T10:04:18;100234.82;;;19.97;25.16
66396;BME280;53207;51.378;-1.342;2022-12-18T10:06:50;100223.16;;;20.11;25.18
66396;BME280;53207;51.378;-1.342;2022-12-18T10:09:27;100223.30;;;19.83;25.20
66396;BME280;53207;51.378;-1.342;2022-12-18T10:12:03;100223.46;;;19.80;25.14
66396;BME280;53207;51.378;-1.342;2022-12-18T10:14:40;100222.60;;;19.95;25.16
66396;BME280;53207;51.378;-1.342;2022-12-18T10:17:20;100228.07;;;19.36;25.17
66396;BME280;53207;51.378;-1.342;2022-12-18T10:19:52;100226.02;;;19.59;25.16
66396;BME280;53207;51.378;-1.342;2022-12-18T10:22:35;100223.53;;;19.50;25.16
66396;BME280;53207;51.378;-1.342;2022-12-18T10:25:16;100212.72;;;19.57;25.27
66396;BME280;53207;51.378;-1.342;2022-12-18T10:27:45;100222.76;;;19.48;25.32
66396;BME280;53207;51.378;-1.342;2022-12-18T10:30:14;100228.82;;;19.32;25.36
66396;BME280;53207;51.378;-1.342;2022-12-18T10:32:42;100233.80;;;19.18;25.43
66396;BME280;53207;51.378;-1.342;2022-12-18T10:35:17;100233.15;;;18.95;25.56
66396;BME280;53207;51.378;-1.342;2022-12-18T10:38:01;100229.95;;;18.70;25.58
66396;BME280;53207;51.378;-1.342;2022-12-18T10:40:30;100222.78;;;18.66;25.73
66396;BME280;53207;51.378;-1.342;2022-12-18T10:43:11;100206.47;;;18.62;25.75
66396;BME280;53207;51.378;-1.342;2022-12-18T10:45:39;100194.11;;;18.55;25.76
66396;BME280;53207;51.378;-1.342;2022-12-18T10:48:18;100186.23;;;18.47;25.77
66396;BME280;53207;51.378;-1.342;2022-12-18T10:50:48;100183.03;;;18.18;25.95
66396;BME280;53207;51.378;-1.342;2022-12-18T10:53:21;100181.88;;;18.35;25.79
66396;BME280;53207;51.378;-1.342;2022-12-18T10:55:51;100191.64;;;18.49;25.87
66396;BME280;53207;51.378;-1.342;2022-12-18T10:58:24;100187.79;;;17.85;25.98
66396;BME280;53207;51.378;-1.342;2022-12-18T11:01:05;100180.88;;;18.35;25.94
66396;BME280;53207;51.378;-1.342;2022-12-18T11:03:34;100174.10;;;17.99;25.97
66396;BME280;53207;51.378;-1.342;2022-12-18T11:06:04;100168.79;;;17.95;25.98
66396;BME280;53207;51.378;-1.342;2022-12-18T11:08:32;100159.55;;;17.86;26.03
66396;BME280;53207;51.378;-1.342;2022-12-18T11:10:59;100158.34;;;18.12;26.01
66396;BME280;53207;51.378;-1.342;2022-12-18T11:13:28;100145.40;;;18.26;26.03
66396;BME280;53207;51.378;-1.342;2022-12-18T11:15:56;100137.05;;;17.97;26.09
66396;BME280;53207;51.378;-1.342;2022-12-18T11:18:27;100131.67;;;17.85;26.16
66396;BME280;53207;51.378;-1.342;2022-12-18T11:20:56;100120.67;;;17.64;26.09
66396;BME280;53207;51.378;-1.342;2022-12-18T11:23:25;100112.49;;;18.05;26.14
66396;BME280;53207;51.378;-1.342;2022-12-18T11:25:56;100101.76;;;17.77;26.17
66396;BME280;53207;51.378;-1.342;2022-12-18T11:28:34;100092.84;;;17.89;26.21
66396;BME280;53207;51.378;-1.342;2022-12-18T11:31:34;100092.29;;;17.92;26.18
66396;BME280;53207;51.378;-1.342;2022-12-18T11:34:05;100087.89;;;17.78;26.26
66396;BME280;53207;51.378;-1.342;2022-12-18T11:36:39;100087.84;;;17.66;26.36
66396;BME280;53207;51.378;-1.342;2022-12-18T11:39:14;100081.71;;;17.71;26.26
66396;BME280;53207;51.378;-1.342;2022-12-18T11:41:51;100071.55;;;17.53;26.39
66396;BME280;53207;51.378;-1.342;2022-12-18T11:44:25;100060.49;;;17.69;26.24
66396;BME280;53207;51.378;-1.342;2022-12-18T11:47:03;100049.30;;;17.59;26.28
66396;BME280;53207;51.378;-1.342;2022-12-18T11:49:34;100045.33;;;17.73;26.34
66396;BME280;53207;51.378;-1.342;2022-12-18T11:52:08;100031.94;;;17.45;26.37
66396;BME280;53207;51.378;-1.342;2022-12-18T11:54:36;100028.50;;;17.33;26.45
66396;BME280;53207;51.378;-1.342;2022-12-18T11:57:11;100026.54;;;17.38;26.59
66396;BME280;53207;51.378;-1.342;2022-12-18T11:59:53;100015.29;;;17.32;26.39
66396;BME280;53207;51.378;-1.342;2022-12-18T12:02:40;100013.76;;;17.23;26.48
66396;BME280;53207;51.378;-1.342;2022-12-18T12:05:24;100007.55;;;17.12;26.51
66396;BME280;53207;51.378;-1.342;2022-12-18T12:07:58;99992.57;;;17.38;26.44
66396;BME280;53207;51.378;-1.342;2022-12-18T12:10:40;99995.62;;;17.12;26.48
66396;BME280;53207;51.378;-1.342;2022-12-18T12:13:20;99988.95;;;17.11;26.44
66396;BME280;53207;51.378;-1.342;2022-12-18T12:15:58;99983.17;;;16.85;26.65
66396;BME280;53207;51.378;-1.342;2022-12-18T12:18:45;99980.77;;;16.94;26.54
66396;BME280;53207;51.378;-1.342;2022-12-18T12:21:23;99972.26;;;17.09;26.57
66396;BME280;53207;51.378;-1.342;2022-12-18T12:23:58;99970.03;;;16.94;26.73
66396;BME280;53207;51.378;-1.342;2022-12-18T12:26:34;99963.48;;;16.70;26.72
66396;BME280;53207;51.378;-1.342;2022-12-18T12:29:16;99955.02;;;17.17;26.69
66396;BME280;53207;51.378;-1.342;2022-12-18T12:31:57;99951.10;;;16.83;26.78
66396;BME280;53207;51.378;-1.342;2022-12-18T12:34:36;99938.06;;;17.12;26.71
66396;BME280;53207;51.378;-1.342;2022-12-18T12:37:16;99931.82;;;17.15;26.65
66396;BME280;53207;51.378;-1.342;2022-12-18T12:39:47;99929.04;;;16.87;26.89
66396;BME280;53207;51.378;-1.342;2022-12-18T12:42:19;99918.39;;;16.96;26.79
66396;BME280;53207;51.378;-1.342;2022-12-18T12:44:53;99912.86;;;16.54;26.92
66396;BME280;53207;51.378;-1.342;2022-12-18T12:47:25;99906.48;;;16.48;26.95
66396;BME280;53207;51.378;-1.342;2022-12-18T12:49:54;99899.60;;;16.52;26.89
66396;BME280;53207;51.378;-1.342;2022-12-18T12:52:29;99894.56;;;16.31;27.11
66396;BME280;53207;51.378;-1.342;2022-12-18T12:54:58;99890.56;;;16.43;26.98